Kansai — JD3272 — position and weather

sailwx.info

Track history (hours):
 
Tides and Currents Weather Stations Pressure Air Temp Water Temp Dewpoint Dewpoint Depression Visibility Wind Speed Wind Dir Waves Ship Positions

Kansai

Last reported at 2014-Aug-27 02:25 UTC. Time now 2014-Aug-29 05:34 UTC.
Position N 34°12' E 134°59'.

Length 73 m; draft 4.2 m.

Type: Cargo ship. MMSI: 431003134.

Date/timePositionNaut miles runAvg speedWind from/ knotsBaromVisibWave heightAir tempDewpointWater temp
2014-Aug-27 02:25N 34°12' E 134°59'910.8
2014-Aug-27 01:32N 34°22' E 134°60'1010.4
2014-Aug-27 00:34N 34°32' E 135°02'8 5.6
2014-Aug-26 23:11N 34°36' E 134°55'6 9.0
2014-Aug-26 22:29N 34°40' E 134°49'1 0.1
2014-Aug-26 02:16N 34°41' E 134°49'6 1.4
2014-Aug-25 22:23N 34°37' E 134°54'1011.5
2014-Aug-25 21:33N 34°34' E 135°05'1412.6
2014-Aug-25 20:24N 34°20' E 135°00'  
2014-Aug-23 03:29N 34°36' E 134°57'3 0.1
2014-Aug-22 01:31N 34°38' E 134°54'1010.8
2014-Aug-22 00:33N 34°34' E 135°06'1411.9
2014-Aug-21 23:22N 34°20' E 135°01'  
2014-Aug-18 03:20N 34°05' E 134°59'910.0
2014-Aug-18 02:29N 34°14' E 134°58'1010.3
2014-Aug-18 01:33N 34°24' E 135°00'1110.6
2014-Aug-18 00:33N 34°34' E 135°03'  
Track history (hours):
 
Tides and Currents Weather Stations Pressure Air Temp Water Temp Dewpoint Dewpoint Depression Visibility Wind Speed Wind Dir Waves Ship Positions

Kansai

Last reported at 2014-Aug-27 02:25 UTC. Time now 2014-Aug-29 05:34 UTC.
Position N 34°12' E 134°59'.

Length 73 m; draft 4.2 m.

Type: Cargo ship. MMSI: 431003134.

Date/timePositionNaut miles runAvg speedWind from/ knotsBaromVisibWave heightAir tempDewpointWater temp
2014-Aug-27 02:25N 34°12' E 134°59'910.8
2014-Aug-27 01:32N 34°22' E 134°60'1010.4
2014-Aug-27 00:34N 34°32' E 135°02'8 5.6
2014-Aug-26 23:11N 34°36' E 134°55'6 9.0
2014-Aug-26 22:29N 34°40' E 134°49'1 0.1
2014-Aug-26 02:16N 34°41' E 134°49'6 1.4
2014-Aug-25 22:23N 34°37' E 134°54'1011.5
2014-Aug-25 21:33N 34°34' E 135°05'1412.6
2014-Aug-25 20:24N 34°20' E 135°00'  
2014-Aug-23 03:29N 34°36' E 134°57'3 0.1
2014-Aug-22 01:31N 34°38' E 134°54'1010.8
2014-Aug-22 00:33N 34°34' E 135°06'1411.9
2014-Aug-21 23:22N 34°20' E 135°01'  
2014-Aug-18 03:20N 34°05' E 134°59'910.0
2014-Aug-18 02:29N 34°14' E 134°58'1010.3
2014-Aug-18 01:33N 34°24' E 135°00'1110.6
2014-Aug-18 00:33N 34°34' E 135°03'  

Dump ship's entire track history